Barcelona, Brazil
Current Conditions -  °F | °C
As of 6:00 PM on Wednesday 26 Nov 2014 (Local Time) from SBNT Reporting Station
Scattered Clouds Scattered Clouds  
Wind Chill: 81°   Ceiling: Unl
Heat Index: 84°   Visibility: 6mi
Dew Point: 70°   Wind: 9mph
Humidity: 70%   Direction: 130°SE
Pressure: 29.88"   Gusts: NA
Location:  5.95°S, 35.93°W
Report Text: SBNT 262100Z 13008KT 9999 SCT020 27/21 Q1012
Loading
Personal Weather Stations






























Interactive Weather Map New forecast layout! Learn more

10-Day Weather Forecast

Advertisements
Track Severe Weather on mobile